createdAt,value
2017-05-15T00:00:54.849Z,14.20
2017-05-15T00:03:22.130Z,14.52
2017-05-15T00:05:49.354Z,14.76
2017-05-15T00:08:16.797Z,14.80
2017-05-15T00:10:44.249Z,16.88
2017-05-15T00:13:11.545Z,13.12
2017-05-15T00:15:38.984Z,13.36
2017-05-15T00:18:06.478Z,15.88
2017-05-15T00:20:34.004Z,12.20
2017-05-15T00:23:01.445Z,11.82
2017-05-15T00:25:28.892Z,11.76
2017-05-15T00:27:56.376Z,10.58
2017-05-15T00:30:23.844Z,8.32
2017-05-15T00:32:51.302Z,9.08
2017-05-15T00:35:21.421Z,10.18
2017-05-15T00:37:49.433Z,8.82
2017-05-15T00:40:16.825Z,6.76
2017-05-15T00:42:44.016Z,6.70
2017-05-15T00:45:11.941Z,9.18
2017-05-15T00:47:39.141Z,10.52
2017-05-15T00:50:06.340Z,7.88
2017-05-15T00:52:33.541Z,6.34
2017-05-15T00:55:00.847Z,6.76
2017-05-15T00:57:28.180Z,7.40
2017-05-15T00:59:55.632Z,7.68
2017-05-15T01:02:23.092Z,4.98
2017-05-15T01:04:50.677Z,4.94
2017-05-15T01:07:18.119Z,5.22
2017-05-15T01:09:45.556Z,7.38
2017-05-15T01:12:13.018Z,5.32
2017-05-15T01:14:40.517Z,6.07
2017-05-15T01:17:10.312Z,5.82
2017-05-15T01:19:37.522Z,5.92
2017-05-15T01:22:04.979Z,5.90
2017-05-15T01:24:32.431Z,9.68
2017-05-15T01:26:59.901Z,8.23
2017-05-15T01:29:27.267Z,8.67
2017-05-15T01:31:55.063Z,7.88
2017-05-15T01:34:22.468Z,7.95
2017-05-15T01:36:50.657Z,6.87
2017-05-15T01:39:18.889Z,7.23
2017-05-15T01:41:46.358Z,7.47
2017-05-15T01:44:14.583Z,9.25
2017-05-15T01:46:41.837Z,6.65
2017-05-15T01:49:09.148Z,6.00
2017-05-15T01:51:36.562Z,7.72
2017-05-15T01:54:04.070Z,6.78
2017-05-15T01:56:31.572Z,7.32
2017-05-15T01:58:58.943Z,7.82
2017-05-15T02:01:27.275Z,8.78
2017-05-15T02:03:54.757Z,10.72
2017-05-15T02:06:22.263Z,8.58
2017-05-15T02:08:50.525Z,15.12
2017-05-15T02:11:18.137Z,10.25
2017-05-15T02:13:45.688Z,12.22
2017-05-15T02:16:13.200Z,12.82
2017-05-15T02:18:40.714Z,12.00
2017-05-15T02:21:08.101Z,13.02
2017-05-15T02:23:35.652Z,11.98
2017-05-15T02:26:03.372Z,11.25
2017-05-15T02:28:30.892Z,11.35
2017-05-15T02:30:58.410Z,14.62
2017-05-15T02:33:25.952Z,12.80
2017-05-15T02:35:53.465Z,13.90
2017-05-15T02:38:21.552Z,14.55
2017-05-15T02:40:49.065Z,10.67
2017-05-15T02:43:17.025Z,10.17
2017-05-15T02:45:44.528Z,13.37
2017-05-15T02:48:11.949Z,11.02
2017-05-15T02:50:39.450Z,16.17
2017-05-15T02:53:06.919Z,12.03
2017-05-15T02:55:34.577Z,13.28
2017-05-15T02:58:02.131Z,12.00
2017-05-15T03:00:30.442Z,14.48
2017-05-15T03:02:57.996Z,14.13
2017-05-15T03:05:25.524Z,12.13
2017-05-15T03:07:52.912Z,12.30
2017-05-15T03:10:20.406Z,16.43
2017-05-15T03:12:47.790Z,13.53
2017-05-15T03:15:15.189Z,13.37
2017-05-15T03:17:43.421Z,14.30
2017-05-15T03:20:10.940Z,12.58
2017-05-15T03:22:38.451Z,12.57
2017-05-15T03:25:05.990Z,12.48
2017-05-15T03:27:33.456Z,15.73
2017-05-15T03:30:03.916Z,14.17
2017-05-15T03:32:31.490Z,14.18
2017-05-15T03:34:59.002Z,14.18
2017-05-15T03:37:26.418Z,15.38
2017-05-15T03:39:54.644Z,14.23
2017-05-15T03:42:22.157Z,19.50
2017-05-15T03:44:50.278Z,15.73
2017-05-15T03:47:17.725Z,15.25
2017-05-15T03:49:45.281Z,15.13
2017-05-15T03:52:12.813Z,16.23
2017-05-15T03:54:40.197Z,15.72
2017-05-15T03:57:07.684Z,17.23
2017-05-15T03:59:35.176Z,17.52
2017-05-15T04:02:02.661Z,20.28
2017-05-15T04:04:30.209Z,16.37
2017-05-15T04:06:57.596Z,17.12
2017-05-15T04:09:24.941Z,15.68
2017-05-15T04:11:53.128Z,16.75
2017-05-15T04:14:21.381Z,17.53
2017-05-15T04:16:48.908Z,19.85
2017-05-15T04:19:16.381Z,18.25
2017-05-15T04:21:43.891Z,17.62
2017-05-15T04:24:11.368Z,15.52
2017-05-15T04:26:38.923Z,17.08
2017-05-15T04:29:06.417Z,14.48
2017-05-15T04:31:33.972Z,16.50
2017-05-15T04:34:01.369Z,18.33
2017-05-15T04:36:28.863Z,17.15
2017-05-15T04:38:56.357Z,16.05
2017-05-15T04:41:23.837Z,16.05
2017-05-15T04:43:51.340Z,13.22
2017-05-15T04:46:18.824Z,16.43
2017-05-15T04:48:46.220Z,18.95
2017-05-15T04:51:14.162Z,15.93
2017-05-15T04:53:42.469Z,15.63
2017-05-15T04:56:10.013Z,17.23
2017-05-15T04:58:37.581Z,20.83
2017-05-15T05:01:05.106Z,16.35
2017-05-15T05:03:32.532Z,16.73
2017-05-15T05:06:01.620Z,14.67
2017-05-15T05:08:29.165Z,12.47
2017-05-15T05:10:57.576Z,13.25
2017-05-15T05:13:25.841Z,15.45
2017-05-15T05:15:53.326Z,14.27
2017-05-15T05:18:20.862Z,12.15
2017-05-15T05:21:00.435Z,12.82
2017-05-15T05:23:40.773Z,11.75
2017-05-15T05:26:21.346Z,11.02
2017-05-15T05:29:09.787Z,12.38
2017-05-15T05:31:49.469Z,11.17
2017-05-15T05:34:30.156Z,9.17
2017-05-15T05:37:13.610Z,8.98
2017-05-15T05:39:48.852Z,9.90
2017-05-15T05:42:27.300Z,10.38
2017-05-15T05:44:55.409Z,11.22
2017-05-15T05:47:22.660Z,7.72
2017-05-15T05:49:49.956Z,11.42
2017-05-15T05:52:17.949Z,7.83
2017-05-15T05:54:45.217Z,9.73
2017-05-15T05:57:28.962Z,9.32
2017-05-15T06:00:09.100Z,7.94
2017-05-15T06:02:48.513Z,10.84
2017-05-15T06:05:31.828Z,8.23
2017-05-15T06:11:19.558Z,9.92
2017-05-15T06:13:59.181Z,7.60
2017-05-15T06:16:39.486Z,9.88
2017-05-15T06:19:06.765Z,9.92
2017-05-15T06:21:34.075Z,9.35
2017-05-15T06:24:27.594Z,13.50
2017-05-15T06:26:55.097Z,9.68
2017-05-15T06:29:22.228Z,10.90
2017-05-15T06:31:50.175Z,7.48
2017-05-15T06:34:17.371Z,5.44
2017-05-15T06:36:44.551Z,10.70
2017-05-15T06:39:24.892Z,8.16
2017-05-15T06:42:05.055Z,10.04
2017-05-15T06:44:32.188Z,14.72
2017-05-15T06:46:59.391Z,8.07
2017-05-15T06:49:26.533Z,9.86
2017-05-15T06:51:53.668Z,12.12
2017-05-15T06:54:20.807Z,11.50
2017-05-15T06:56:47.945Z,11.80
2017-05-15T06:59:15.196Z,11.32
2017-05-15T07:01:42.334Z,9.70
2017-05-15T07:04:09.464Z,9.80
2017-05-15T07:06:36.632Z,8.04
2017-05-15T07:09:03.889Z,10.22
2017-05-15T07:11:31.109Z,10.16
2017-05-15T07:13:59.056Z,7.68
2017-05-15T07:16:26.334Z,5.26
2017-05-15T07:18:53.563Z,12.80
2017-05-15T07:21:21.500Z,10.70
2017-05-15T07:23:48.714Z,5.26
2017-05-15T07:26:17.669Z,3.42
2017-05-15T07:28:44.911Z,8.96
2017-05-15T07:31:12.137Z,10.14
2017-05-15T07:33:40.118Z,6.56
2017-05-15T07:36:07.372Z,5.88
2017-05-15T07:38:35.402Z,8.72
2017-05-15T07:41:02.600Z,12.02
2017-05-15T07:43:29.839Z,10.98
2017-05-15T07:45:57.071Z,8.42
2017-05-15T07:48:24.288Z,7.64
2017-05-15T07:50:52.346Z,11.58
2017-05-15T07:53:21.222Z,9.52
2017-05-15T07:55:48.436Z,7.54
2017-05-15T07:58:15.648Z,6.52
2017-05-15T08:00:42.848Z,7.80
2017-05-15T08:03:10.044Z,5.58
2017-05-15T08:05:37.276Z,7.14
2017-05-15T08:08:04.557Z,7.90
2017-05-15T08:10:35.740Z,5.38
2017-05-15T08:13:02.993Z,4.16
2017-05-15T08:15:30.227Z,6.80
2017-05-15T08:17:57.432Z,6.48
2017-05-15T08:20:24.661Z,7.22
2017-05-15T08:22:51.873Z,6.10
2017-05-15T08:25:25.016Z,5.60
2017-05-15T08:27:52.242Z,6.94
2017-05-15T08:30:19.464Z,5.46
2017-05-15T08:32:46.706Z,5.54
2017-05-15T08:35:13.930Z,7.24
2017-05-15T08:37:41.161Z,6.04
2017-05-15T08:42:43.293Z,15.90
2017-05-15T08:45:10.570Z,21.94
2017-05-15T08:47:37.760Z,7.96
2017-05-15T08:50:04.968Z,6.88
2017-05-15T08:52:32.161Z,6.42
2017-05-15T08:55:00.093Z,7.68
2017-05-15T08:57:27.292Z,10.02
2017-05-15T08:59:54.529Z,6.30
2017-05-15T09:02:21.765Z,7.36
2017-05-15T09:04:48.996Z,16.10
2017-05-15T09:07:16.234Z,11.08
2017-05-15T09:09:44.185Z,9.54
2017-05-15T09:12:12.145Z,9.38
2017-05-15T09:14:39.358Z,9.86
2017-05-15T09:17:06.552Z,9.12
2017-05-15T09:19:34.493Z,9.18
2017-05-15T09:22:01.807Z,10.00
2017-05-15T09:24:29.028Z,9.78
2017-05-15T09:26:56.254Z,14.20
2017-05-15T09:29:23.451Z,8.82
2017-05-15T09:31:50.648Z,11.92
2017-05-15T09:34:17.897Z,9.20
2017-05-15T09:36:45.100Z,9.80
2017-05-15T09:39:12.292Z,7.32
2017-05-15T09:41:39.493Z,10.94
2017-05-15T09:44:06.701Z,11.22
2017-05-15T09:46:33.927Z,9.90
2017-05-15T09:49:01.524Z,10.64
2017-05-15T09:51:30.336Z,11.52
2017-05-15T09:53:58.272Z,10.18
2017-05-15T09:56:25.580Z,10.48
2017-05-15T09:58:54.008Z,7.80
2017-05-15T10:01:21.223Z,9.06
2017-05-15T10:03:48.442Z,8.78
2017-05-15T10:06:16.407Z,9.52
2017-05-15T10:08:43.628Z,9.02
2017-05-15T10:11:10.829Z,9.76
2017-05-15T10:13:38.007Z,6.76
2017-05-15T10:16:05.338Z,7.64
2017-05-15T10:18:33.304Z,11.40
2017-05-15T10:21:01.332Z,6.84
2017-05-15T10:23:28.522Z,5.36
2017-05-15T10:25:56.448Z,5.24
2017-05-15T10:28:23.647Z,7.50
2017-05-15T10:30:50.842Z,8.28
2017-05-15T10:33:18.073Z,7.64
2017-05-15T10:35:45.258Z,7.70
2017-05-15T10:38:12.464Z,5.50
2017-05-15T10:40:39.664Z,5.00
2017-05-15T10:43:06.882Z,5.34
2017-05-15T10:45:34.832Z,6.20
2017-05-15T10:48:02.190Z,8.20
2017-05-15T10:50:30.359Z,7.38
2017-05-15T10:52:57.613Z,6.08
2017-05-15T10:55:24.834Z,5.96
2017-05-15T10:57:52.024Z,3.78
2017-05-15T11:00:19.255Z,8.82
2017-05-15T11:02:46.901Z,6.68
2017-05-15T11:05:14.747Z,11.60
2017-05-15T11:07:42.021Z,8.06
2017-05-15T11:10:09.225Z,7.34
2017-05-15T11:12:36.421Z,6.26
2017-05-15T11:15:03.696Z,8.74
2017-05-15T11:17:30.929Z,7.62
2017-05-15T11:19:58.167Z,8.40
2017-05-15T11:22:25.595Z,8.62
2017-05-15T11:24:53.013Z,7.44
2017-05-15T11:27:20.496Z,4.82
2017-05-15T11:29:47.968Z,5.22
2017-05-15T11:32:15.431Z,7.80
2017-05-15T11:34:42.845Z,4.76
2017-05-15T11:37:11.037Z,10.60
2017-05-15T11:39:38.486Z,9.26
2017-05-15T11:42:05.788Z,5.94
2017-05-15T11:44:33.158Z,10.36
2017-05-15T11:47:00.661Z,4.34
2017-05-15T11:49:28.112Z,4.74
2017-05-15T11:51:55.560Z,8.32
2017-05-15T11:54:23.004Z,4.98
2017-05-15T11:56:50.436Z,10.52
2017-05-15T11:59:17.876Z,4.84
2017-05-15T12:01:45.291Z,4.40
2017-05-15T12:04:12.789Z,7.04
2017-05-15T12:06:40.398Z,3.06
2017-05-15T12:09:08.576Z,4.52
2017-05-15T12:11:36.785Z,4.52
2017-05-15T12:14:04.207Z,5.64
2017-05-15T12:16:31.701Z,4.36
2017-05-15T12:18:59.752Z,3.18
2017-05-15T12:21:27.169Z,5.86
2017-05-15T12:23:55.336Z,3.88
2017-05-15T12:26:23.521Z,3.78
2017-05-15T12:28:50.966Z,2.50
2017-05-15T12:31:18.319Z,3.22
2017-05-15T12:33:45.728Z,4.42
2017-05-15T12:36:13.144Z,4.20
2017-05-15T12:38:40.585Z,7.96
2017-05-15T12:41:08.054Z,4.80
2017-05-15T12:43:36.233Z,5.66
2017-05-15T12:46:03.800Z,3.86
2017-05-15T12:48:32.009Z,4.42
2017-05-15T12:50:59.192Z,3.96
2017-05-15T12:53:26.602Z,4.54
2017-05-15T12:55:54.688Z,5.64
2017-05-15T12:58:22.045Z,4.72
2017-05-15T13:00:49.515Z,5.66
2017-05-15T13:03:16.937Z,4.34
2017-05-15T13:05:44.475Z,6.62
2017-05-15T13:08:11.883Z,5.02
2017-05-15T13:10:39.325Z,3.92
2017-05-15T13:13:06.853Z,5.34
2017-05-15T13:15:34.316Z,4.88
2017-05-15T13:18:01.788Z,5.88
2017-05-15T13:20:30.251Z,3.22
2017-05-15T13:22:57.697Z,5.22
2017-05-15T13:25:25.109Z,3.54
2017-05-15T13:27:52.645Z,4.30
2017-05-15T13:30:20.141Z,9.80
2017-05-15T13:32:47.872Z,2.54
2017-05-15T13:35:15.210Z,4.84
2017-05-15T13:37:42.684Z,5.12
2017-05-15T13:40:10.159Z,3.48
2017-05-15T13:42:38.368Z,4.30
2017-05-15T13:45:06.890Z,4.46
2017-05-15T13:47:35.109Z,4.70
2017-05-15T13:50:03.268Z,4.44
2017-05-15T13:52:30.545Z,5.04
2017-05-15T13:54:57.915Z,3.80
2017-05-15T13:57:46.154Z,2.90
2017-05-15T14:00:21.179Z,5.60
2017-05-15T14:02:49.187Z,2.84
2017-05-15T14:05:16.389Z,5.08
2017-05-15T14:07:43.868Z,3.72
2017-05-15T14:10:11.137Z,4.32
2017-05-15T14:12:38.354Z,3.06
2017-05-15T14:15:06.904Z,7.96
2017-05-15T14:17:35.062Z,6.00
2017-05-15T14:20:02.369Z,4.52
2017-05-15T14:22:29.630Z,3.80
2017-05-15T14:24:56.866Z,4.40
2017-05-15T14:27:24.235Z,3.82
2017-05-15T14:29:51.501Z,3.28
2017-05-15T14:32:18.714Z,6.88
2017-05-15T14:34:45.944Z,3.48
2017-05-15T14:37:13.558Z,3.72
2017-05-15T14:39:40.769Z,4.36
2017-05-15T14:42:08.002Z,3.20
2017-05-15T14:44:35.221Z,3.26
2017-05-15T14:47:02.426Z,6.02
2017-05-15T14:49:29.640Z,4.10
2017-05-15T14:51:56.850Z,4.26
2017-05-15T14:54:24.113Z,4.26
2017-05-15T14:56:51.314Z,3.86
2017-05-15T14:59:18.627Z,3.48
2017-05-15T15:01:45.820Z,4.72
2017-05-15T15:04:13.095Z,2.40
2017-05-15T15:06:40.394Z,4.98
2017-05-15T15:09:07.596Z,2.40
2017-05-15T15:11:35.045Z,4.66
2017-05-15T15:14:02.273Z,3.26
2017-05-15T15:16:29.481Z,2.14
2017-05-15T15:18:56.677Z,4.20
2017-05-15T15:21:24.332Z,3.78
2017-05-15T15:23:52.112Z,2.80
2017-05-15T15:26:19.392Z,3.44
2017-05-15T15:28:46.613Z,3.92
2017-05-15T15:31:14.626Z,6.02
2017-05-15T15:33:42.008Z,1.82
2017-05-15T15:36:09.209Z,3.32
2017-05-15T15:38:36.416Z,3.80
2017-05-15T15:41:03.625Z,4.52
2017-05-15T15:43:30.880Z,3.84
2017-05-15T15:45:58.321Z,3.40
2017-05-15T15:48:25.543Z,2.62
2017-05-15T15:50:52.823Z,2.54
2017-05-15T15:53:20.080Z,3.68
2017-05-15T15:55:47.505Z,2.98
2017-05-15T15:58:15.565Z,5.38
2017-05-15T16:00:42.824Z,3.78
2017-05-15T16:03:10.804Z,2.60
2017-05-15T16:05:38.017Z,2.54
2017-05-15T16:08:05.426Z,3.82
2017-05-15T16:10:32.697Z,3.74
2017-05-15T16:12:59.890Z,2.20
2017-05-15T16:15:27.932Z,4.14
2017-05-15T16:17:55.217Z,3.72
2017-05-15T16:20:22.481Z,3.96
2017-05-15T16:22:49.681Z,3.30
2017-05-15T16:25:16.936Z,7.80
2017-05-15T16:28:01.776Z,2.14
2017-05-15T16:30:39.456Z,4.30
2017-05-15T16:33:06.675Z,2.26
2017-05-15T16:35:33.880Z,5.32
2017-05-15T16:38:01.072Z,3.18
2017-05-15T16:40:28.317Z,3.70
2017-05-15T16:42:55.514Z,2.52
2017-05-15T16:45:23.102Z,3.00
2017-05-15T16:47:50.385Z,2.90
2017-05-15T16:50:17.568Z,2.50
2017-05-15T16:52:44.821Z,3.02
2017-05-15T16:55:15.893Z,2.08
2017-05-15T16:57:43.856Z,4.34
2017-05-15T17:00:11.049Z,3.74
2017-05-15T17:02:38.254Z,2.24
2017-05-15T17:05:05.433Z,4.94
2017-05-15T17:07:32.621Z,5.06
2017-05-15T17:09:59.826Z,3.40
2017-05-15T17:12:28.612Z,3.28
2017-05-15T17:14:55.864Z,1.40
2017-05-15T17:17:23.089Z,3.00
2017-05-15T17:19:50.429Z,5.66
2017-05-15T17:22:17.714Z,3.82
2017-05-15T17:24:44.958Z,3.98
2017-05-15T17:27:18.146Z,4.40
2017-05-15T17:29:46.168Z,2.98
2017-05-15T17:32:13.380Z,2.28
2017-05-15T17:34:40.662Z,1.62
2017-05-15T17:37:07.850Z,5.46
2017-05-15T17:42:14.921Z,1.92
2017-05-15T17:44:42.144Z,3.44
2017-05-15T17:47:09.356Z,2.06
2017-05-15T17:49:36.561Z,2.52
2017-05-15T17:52:03.798Z,1.58
2017-05-15T17:54:31.015Z,2.06
2017-05-15T17:56:58.992Z,4.46
2017-05-15T17:59:26.191Z,1.72
2017-05-15T18:01:53.392Z,1.52
2017-05-15T18:04:21.334Z,2.64
2017-05-15T18:06:48.586Z,7.10
2017-05-15T18:09:15.799Z,3.24
2017-05-15T18:11:49.262Z,3.30
2017-05-15T18:14:17.200Z,2.70
2017-05-15T18:16:44.642Z,1.54
2017-05-15T18:19:11.877Z,5.52
2017-05-15T18:21:39.812Z,1.88
2017-05-15T18:24:07.025Z,2.20
2017-05-15T18:26:34.405Z,2.44
2017-05-15T18:29:02.412Z,1.28
2017-05-15T18:31:29.629Z,2.78
2017-05-15T18:33:56.936Z,1.72
2017-05-15T18:36:24.168Z,2.66
2017-05-15T18:38:51.427Z,4.16
2017-05-15T18:41:18.712Z,2.68
2017-05-15T18:43:45.908Z,2.82
2017-05-15T18:46:13.281Z,4.36
2017-05-15T18:48:40.549Z,4.38
2017-05-15T18:51:08.618Z,1.90
2017-05-15T18:53:36.990Z,3.16
2017-05-15T18:56:05.441Z,2.64
2017-05-15T18:58:33.213Z,4.02
2017-05-15T19:01:01.179Z,2.58
2017-05-15T19:03:28.457Z,1.70
2017-05-15T19:06:02.738Z,2.48
2017-05-15T19:08:31.133Z,3.32
2017-05-15T19:10:58.365Z,4.22
2017-05-15T19:13:25.544Z,1.68
2017-05-15T19:15:52.811Z,2.18
2017-05-15T19:18:20.036Z,1.50
2017-05-15T19:20:47.280Z,3.58
2017-05-15T19:23:15.277Z,1.34
2017-05-15T19:25:42.503Z,2.06
2017-05-15T19:28:10.456Z,1.96
2017-05-15T19:30:38.417Z,3.70
2017-05-15T19:33:05.585Z,1.90
2017-05-15T19:35:33.496Z,1.58
2017-05-15T19:38:00.836Z,2.66
2017-05-15T19:40:28.037Z,2.66
2017-05-15T19:42:55.279Z,2.64
2017-05-15T19:45:22.549Z,3.96
2017-05-15T19:47:50.582Z,4.58
2017-05-15T19:50:17.897Z,2.38
2017-05-15T19:52:45.103Z,4.56
2017-05-15T19:55:12.313Z,3.56
2017-05-15T19:57:39.556Z,2.22
2017-05-15T20:00:06.875Z,5.22
2017-05-15T20:02:34.206Z,1.54
2017-05-15T20:05:01.521Z,1.36
2017-05-15T20:07:28.872Z,1.90
2017-05-15T20:09:56.077Z,3.48
2017-05-15T20:12:24.093Z,2.02
2017-05-15T20:14:51.289Z,4.06
2017-05-15T20:17:18.560Z,3.34
2017-05-15T20:19:46.489Z,2.52
2017-05-15T20:22:13.797Z,3.78
2017-05-15T20:24:41.109Z,4.52
2017-05-15T20:27:08.313Z,3.58
2017-05-15T20:29:36.319Z,5.78
2017-05-15T20:32:03.717Z,4.46
2017-05-15T20:34:31.249Z,3.40
2017-05-15T20:36:58.575Z,6.28
2017-05-15T20:39:25.806Z,4.62
2017-05-15T20:41:54.062Z,2.50
2017-05-15T20:44:21.273Z,4.78
2017-05-15T20:46:48.473Z,2.86
2017-05-15T20:49:15.765Z,3.80
2017-05-15T20:51:42.978Z,2.48
2017-05-15T20:54:10.166Z,3.80
2017-05-15T20:56:37.453Z,2.52
2017-05-15T20:59:04.651Z,1.82
2017-05-15T21:01:31.836Z,6.72
2017-05-15T21:03:59.012Z,3.76
2017-05-15T21:06:26.940Z,1.70
2017-05-15T21:08:54.242Z,3.82
2017-05-15T21:11:21.484Z,3.52
2017-05-15T21:13:48.753Z,2.54
2017-05-15T21:16:15.949Z,3.66
2017-05-15T21:18:43.274Z,2.62
2017-05-15T21:21:10.467Z,1.46
2017-05-15T21:23:37.673Z,2.58
2017-05-15T21:26:04.882Z,1.84
2017-05-15T21:28:32.129Z,1.72
2017-05-15T21:30:59.404Z,2.74
2017-05-15T21:33:26.624Z,1.36
2017-05-15T21:35:53.796Z,4.80
2017-05-15T21:38:20.978Z,2.10
2017-05-15T21:40:48.181Z,1.82
2017-05-15T21:43:15.438Z,2.12
2017-05-15T21:45:42.615Z,2.98
2017-05-15T21:48:10.568Z,1.52
2017-05-15T21:50:37.782Z,2.08
2017-05-15T21:53:05.093Z,2.50
2017-05-15T21:55:32.292Z,5.44
2017-05-15T21:57:59.488Z,2.46
2017-05-15T22:00:26.676Z,2.58
2017-05-15T22:02:53.858Z,3.52
2017-05-15T22:05:21.057Z,1.98
2017-05-15T22:07:48.976Z,2.56
2017-05-15T22:10:16.237Z,5.02
2017-05-15T22:12:43.455Z,3.56
2017-05-15T22:15:10.650Z,2.90
2017-05-15T22:17:37.956Z,2.38
2017-05-15T22:20:05.876Z,2.36
2017-05-15T22:22:33.053Z,4.94
2017-05-15T22:25:00.289Z,4.20
2017-05-15T22:27:27.491Z,3.44
2017-05-15T22:29:54.710Z,2.58
2017-05-15T22:32:21.877Z,6.24
2017-05-15T22:34:49.108Z,3.82
2017-05-15T22:37:16.289Z,3.52
2017-05-15T22:39:43.512Z,5.62
2017-05-15T22:42:10.725Z,4.80
2017-05-15T22:44:38.641Z,6.50
2017-05-15T22:47:05.868Z,2.50
2017-05-15T22:49:33.057Z,3.86
2017-05-15T22:52:00.260Z,6.58
2017-05-15T22:54:27.483Z,3.64
2017-05-15T22:56:55.856Z,4.20
2017-05-15T22:59:23.781Z,3.48
2017-05-15T23:01:50.996Z,4.36
2017-05-15T23:04:18.237Z,4.60
2017-05-15T23:06:45.446Z,7.38
2017-05-15T23:09:12.687Z,4.32
2017-05-15T23:11:39.878Z,5.00
2017-05-15T23:14:07.088Z,6.14
2017-05-15T23:16:34.289Z,4.00
2017-05-15T23:19:01.612Z,4.26
2017-05-15T23:21:29.012Z,2.86
2017-05-15T23:23:56.226Z,4.90
2017-05-15T23:26:23.442Z,4.90
2017-05-15T23:28:50.646Z,7.44
2017-05-15T23:31:17.853Z,3.00
2017-05-15T23:33:45.057Z,4.00
2017-05-15T23:36:12.271Z,2.82
2017-05-15T23:38:39.483Z,3.84
2017-05-15T23:41:07.152Z,4.82
2017-05-15T23:43:34.368Z,3.22
2017-05-15T23:46:01.606Z,3.80
2017-05-15T23:48:28.942Z,4.22
2017-05-15T23:50:56.177Z,4.64
2017-05-15T23:53:24.052Z,5.62
2017-05-15T23:55:51.231Z,3.08
2017-05-15T23:58:18.510Z,3.66
